Pagrindinis puslapis
METAR-TAF:

METAR-TAF

Oro uostai :

Battle Creek, Mičiganas, Jungtinės Amerikos Valstijos

platuma: 42-18-45N, ilguma: 085-14-27W, Aukštis: 290 m

Dabartinis oras

Ataskaita buvo paskelbta 58 minutes, ne 22:53 UTC
Vėjas 14 kt iš Pietų su gūsio iki 22 kt
Temperatūra 24°C
Drėgmė 54%
Slėgis 1008 hPa
Matomumas: 16.1 km
Giedras dangus

METAR: KBTL 262253Z 19014G22KT 10SM CLR 24/14 A2978 RMK AO2 SLP080 T02390144

Laikas: 19:51 (23:51 UTC)

Prognozė

Ataskaita buvo paskelbta 11 minutes, ne 23:40 UTC
Prognozė galioja nuo 27 metu 00 UTC su 27 metu 24 UTC
Vėjas 12 kt iš Pietų/Pietvakarių su gūsio iki 21 kt
Matomumas: 10 km
Išsisklaidę debesys ne aukštis 25000 ft
Nuo 27 metu 0600 UTC
Vėjas 14 kt iš Pietų/Pietvakarių
Matomumas: 10 km
Su prošvaistėmis ne aukštis 10000 ft
Nuo 27 metu 1200 UTC
Vėjas 13 kt iš Pietų/Pietvakarių
Matomumas: 10 km
Apsiniaukę ne aukštis 2500 ft

TAF: KBTL 262340Z 2700/2724 21012G21KT P6SM SCT250 FM270600 21014KT P6SM BKN100 WS020/23040KT FM271200 21013KT P6SM OVC025

Orai ataskaitas ir orų prognozės (METAR, TAF).

turimą stotys yra geltonos ir raudonos taškus žemėlapyje.

Perkelti pele per norėdami pamatyti stoties vardą.

Tada spustelėkite, norėdami matyti oro stebėjimo ir prognozės.

Norėdami pakeisti žemėlapį: spustelėkite ant žalios mygtukų su juodo kryžiaus žemyn,; žalią mygtuką su brūkšneliu, jei norite nutolinti; arba žalių rodyklių gretimoms žemėlapius.


METAR-TAF: